sensor_id;sensor_type;location;lat;lon;timestamp;pressure;altitude;pressure_sealevel;temperature;humidity
84147;BME280;74267;50.434;7.398;2023-11-19T00:00:21;100450.81;;;9.71;94.25
84147;BME280;74267;50.434;7.398;2023-11-19T00:02:46;100452.03;;;9.62;95.10
84147;BME280;74267;50.434;7.398;2023-11-19T00:05:13;100457.09;;;9.70;94.62
84147;BME280;74267;50.434;7.398;2023-11-19T00:07:39;100465.56;;;9.72;94.41
84147;BME280;74267;50.434;7.398;2023-11-19T00:10:08;100454.25;;;9.78;94.03
84147;BME280;74267;50.434;7.398;2023-11-19T00:12:36;100447.56;;;9.69;94.29
84147;BME280;74267;50.434;7.398;2023-11-19T00:15:01;100453.44;;;9.84;93.74
84147;BME280;74267;50.434;7.398;2023-11-19T00:17:27;100442.13;;;9.77;94.42
84147;BME280;74267;50.434;7.398;2023-11-19T00:19:52;100439.09;;;9.67;94.49
84147;BME280;74267;50.434;7.398;2023-11-19T00:22:17;100424.53;;;9.71;94.42
84147;BME280;74267;50.434;7.398;2023-11-19T00:24:43;100429.97;;;9.76;94.54
84147;BME280;74267;50.434;7.398;2023-11-19T00:27:08;100413.19;;;9.77;94.50
84147;BME280;74267;50.434;7.398;2023-11-19T00:29:33;100407.13;;;9.89;93.96
84147;BME280;74267;50.434;7.398;2023-11-19T00:31:59;100408.53;;;9.85;94.10
84147;BME280;74267;50.434;7.398;2023-11-19T00:34:24;100402.47;;;9.85;94.23
84147;BME280;74267;50.434;7.398;2023-11-19T00:36:49;100382.84;;;9.81;94.86
84147;BME280;74267;50.434;7.398;2023-11-19T00:39:15;100388.09;;;9.87;94.26
84147;BME280;74267;50.434;7.398;2023-11-19T00:41:40;100391.13;;;9.91;94.57
84147;BME280;74267;50.434;7.398;2023-11-19T00:44:06;100402.47;;;9.85;94.51
84147;BME280;74267;50.434;7.398;2023-11-19T00:46:31;100408.75;;;9.84;94.45
84147;BME280;74267;50.434;7.398;2023-11-19T00:48:58;100408.91;;;9.89;94.55
84147;BME280;74267;50.434;7.398;2023-11-19T00:51:26;100396.03;;;9.74;95.03
84147;BME280;74267;50.434;7.398;2023-11-19T00:53:51;100385.09;;;9.84;94.85
84147;BME280;74267;50.434;7.398;2023-11-19T00:56:18;100374.97;;;9.81;95.15
84147;BME280;74267;50.434;7.398;2023-11-19T00:58:44;100381.44;;;9.85;94.77
84147;BME280;74267;50.434;7.398;2023-11-19T01:01:11;100375.59;;;9.83;94.39
84147;BME280;74267;50.434;7.398;2023-11-19T01:03:37;100377.78;;;9.86;94.35
84147;BME280;74267;50.434;7.398;2023-11-19T01:06:03;100382.44;;;9.84;94.75
84147;BME280;74267;50.434;7.398;2023-11-19T01:08:28;100371.94;;;9.84;94.70
84147;BME280;74267;50.434;7.398;2023-11-19T01:10:54;100387.88;;;9.89;94.94
84147;BME280;74267;50.434;7.398;2023-11-19T01:13:19;100394.00;;;9.83;95.41
84147;BME280;74267;50.434;7.398;2023-11-19T01:15:44;100383.03;;;9.92;94.57
84147;BME280;74267;50.434;7.398;2023-11-19T01:18:10;100384.66;;;9.93;94.63
84147;BME280;74267;50.434;7.398;2023-11-19T01:20:36;100374.53;;;9.90;94.78
84147;BME280;74267;50.434;7.398;2023-11-19T01:23:02;100381.81;;;9.95;94.52
84147;BME280;74267;50.434;7.398;2023-11-19T01:25:27;100377.75;;;9.99;94.68
84147;BME280;74267;50.434;7.398;2023-11-19T01:27:53;100386.88;;;10.03;94.88
84147;BME280;74267;50.434;7.398;2023-11-19T01:30:18;100378.53;;;10.26;94.43
84147;BME280;74267;50.434;7.398;2023-11-19T01:32:44;100385.81;;;10.30;94.08
84147;BME280;74267;50.434;7.398;2023-11-19T01:35:10;100375.28;;;10.30;94.40
84147;BME280;74267;50.434;7.398;2023-11-19T01:37:35;100358.81;;;10.41;93.30
84147;BME280;74267;50.434;7.398;2023-11-19T01:40:01;100358.16;;;10.52;93.09
84147;BME280;74267;50.434;7.398;2023-11-19T01:42:29;100355.31;;;10.60;92.94
84147;BME280;74267;50.434;7.398;2023-11-19T01:44:59;100351.63;;;10.61;93.10
84147;BME280;74267;50.434;7.398;2023-11-19T01:47:25;100330.53;;;10.68;92.50
84147;BME280;74267;50.434;7.398;2023-11-19T01:49:51;100351.56;;;10.74;92.65
84147;BME280;74267;50.434;7.398;2023-11-19T01:52:18;100361.06;;;10.75;92.52
84147;BME280;74267;50.434;7.398;2023-11-19T01:54:44;100361.06;;;10.75;92.68
84147;BME280;74267;50.434;7.398;2023-11-19T01:57:10;100366.34;;;10.75;93.14
84147;BME280;74267;50.434;7.398;2023-11-19T01:59:36;100348.31;;;10.72;93.57
84147;BME280;74267;50.434;7.398;2023-11-19T02:02:01;100339.38;;;10.80;93.00
84147;BME280;74267;50.434;7.398;2023-11-19T02:04:27;100352.19;;;10.76;93.45
84147;BME280;74267;50.434;7.398;2023-11-19T02:06:54;100348.75;;;10.69;93.46
84147;BME280;74267;50.434;7.398;2023-11-19T02:09:21;100354.47;;;10.66;93.53
84147;BME280;74267;50.434;7.398;2023-11-19T02:11:47;100362.53;;;10.71;93.76
84147;BME280;74267;50.434;7.398;2023-11-19T02:14:16;100360.06;;;10.76;93.30
84147;BME280;74267;50.434;7.398;2023-11-19T02:16:42;100358.50;;;10.69;93.46
84147;BME280;74267;50.434;7.398;2023-11-19T02:19:07;100349.19;;;10.66;94.37
84147;BME280;74267;50.434;7.398;2023-11-19T02:21:35;100344.69;;;10.73;93.82
84147;BME280;74267;50.434;7.398;2023-11-19T02:24:03;100349.53;;;10.76;93.24
84147;BME280;74267;50.434;7.398;2023-11-19T02:26:52;100345.69;;;10.72;93.62
84147;BME280;74267;50.434;7.398;2023-11-19T02:29:23;100342.84;;;10.74;93.09
84147;BME280;74267;50.434;7.398;2023-11-19T02:31:49;100330.94;;;10.71;93.86
84147;BME280;74267;50.434;7.398;2023-11-19T02:34:14;100340.63;;;10.77;92.71
84147;BME280;74267;50.434;7.398;2023-11-19T02:36:39;100332.09;;;10.75;93.07
84147;BME280;74267;50.434;7.398;2023-11-19T02:39:07;100321.91;;;10.85;92.50
84147;BME280;74267;50.434;7.398;2023-11-19T02:41:36;100313.78;;;10.93;92.17
84147;BME280;74267;50.434;7.398;2023-11-19T02:44:01;100328.69;;;10.99;92.06
84147;BME280;74267;50.434;7.398;2023-11-19T02:46:26;100325.91;;;10.94;92.41
84147;BME280;74267;50.434;7.398;2023-11-19T02:48:52;100322.63;;;10.99;92.36
84147;BME280;74267;50.434;7.398;2023-11-19T02:51:17;100332.34;;;10.98;92.12
84147;BME280;74267;50.434;7.398;2023-11-19T02:53:43;100326.53;;;10.96;92.68
84147;BME280;74267;50.434;7.398;2023-11-19T02:56:09;100329.78;;;10.92;93.14
84147;BME280;74267;50.434;7.398;2023-11-19T02:58:45;100325.91;;;10.94;92.58
84147;BME280;74267;50.434;7.398;2023-11-19T03:01:11;100309.06;;;10.95;92.37
84147;BME280;74267;50.434;7.398;2023-11-19T03:03:48;100316.22;;;10.88;92.61
84147;BME280;74267;50.434;7.398;2023-11-19T03:06:19;100314.97;;;10.91;93.23
84147;BME280;74267;50.434;7.398;2023-11-19T03:08:44;100314.94;;;10.97;92.78
84147;BME280;74267;50.434;7.398;2023-11-19T03:11:09;100308.06;;;10.96;93.00
84147;BME280;74267;50.434;7.398;2023-11-19T03:13:35;100300.59;;;10.93;93.16
84147;BME280;74267;50.434;7.398;2023-11-19T03:16:00;100290.69;;;10.89;92.78
84147;BME280;74267;50.434;7.398;2023-11-19T03:18:25;100293.13;;;10.90;93.28
84147;BME280;74267;50.434;7.398;2023-11-19T03:20:52;100297.63;;;10.83;93.41
84147;BME280;74267;50.434;7.398;2023-11-19T03:23:17;100300.09;;;10.78;94.10
84147;BME280;74267;50.434;7.398;2023-11-19T03:25:42;100291.63;;;10.76;93.58
84147;BME280;74267;50.434;7.398;2023-11-19T03:28:08;100279.84;;;10.79;93.23
84147;BME280;74267;50.434;7.398;2023-11-19T03:30:34;100285.53;;;10.76;93.54
84147;BME280;74267;50.434;7.398;2023-11-19T03:32:59;100281.06;;;10.76;93.36
84147;BME280;74267;50.434;7.398;2023-11-19T03:35:27;100284.72;;;10.75;92.65
84147;BME280;74267;50.434;7.398;2023-11-19T03:37:53;100283.94;;;10.68;92.85
84147;BME280;74267;50.434;7.398;2023-11-19T03:40:19;100288.78;;;10.71;93.20
84147;BME280;74267;50.434;7.398;2023-11-19T03:42:45;100283.13;;;10.68;93.63
84147;BME280;74267;50.434;7.398;2023-11-19T03:45:11;100288.47;;;10.61;93.36
84147;BME280;74267;50.434;7.398;2023-11-19T03:47:37;100289.63;;;10.65;93.90
84147;BME280;74267;50.434;7.398;2023-11-19T03:50:04;100281.59;;;10.60;93.96
84147;BME280;74267;50.434;7.398;2023-11-19T03:52:29;100271.84;;;10.61;94.36
84147;BME280;74267;50.434;7.398;2023-11-19T03:54:55;100287.63;;;10.67;93.64
84147;BME280;74267;50.434;7.398;2023-11-19T03:57:21;100286.00;;;10.66;94.53
84147;BME280;74267;50.434;7.398;2023-11-19T03:59:46;100286.22;;;10.65;94.86
84147;BME280;74267;50.434;7.398;2023-11-19T04:02:11;100279.09;;;10.65;94.34
84147;BME280;74267;50.434;7.398;2023-11-19T04:04:37;100287.19;;;10.70;94.49
84147;BME280;74267;50.434;7.398;2023-11-19T04:07:04;100277.94;;;10.61;94.70
84147;BME280;74267;50.434;7.398;2023-11-19T04:09:30;100274.88;;;10.64;94.48
84147;BME280;74267;50.434;7.398;2023-11-19T04:11:56;100283.38;;;10.66;94.55
84147;BME280;74267;50.434;7.398;2023-11-19T04:14:22;100288.78;;;10.71;94.42
84147;BME280;74267;50.434;7.398;2023-11-19T04:16:47;100283.09;;;10.74;94.19
84147;BME280;74267;50.434;7.398;2023-11-19T04:19:13;100285.31;;;10.77;94.15
84147;BME280;74267;50.434;7.398;2023-11-19T04:21:42;100282.69;;;10.77;94.01
84147;BME280;74267;50.434;7.398;2023-11-19T04:24:08;100277.00;;;10.80;94.03
84147;BME280;74267;50.434;7.398;2023-11-19T04:26:34;100270.69;;;10.81;93.71
84147;BME280;74267;50.434;7.398;2023-11-19T04:28:59;100269.66;;;10.82;93.25
84147;BME280;74267;50.434;7.398;2023-11-19T04:31:29;100270.53;;;10.76;93.33
84147;BME280;74267;50.434;7.398;2023-11-19T04:33:56;100268.50;;;10.78;93.09
84147;BME280;74267;50.434;7.398;2023-11-19T04:36:21;100274.25;;;10.69;93.84
84147;BME280;74267;50.434;7.398;2023-11-19T04:38:49;100283.63;;;10.58;94.80
84147;BME280;74267;50.434;7.398;2023-11-19T04:41:15;100278.78;;;10.55;94.26
84147;BME280;74267;50.434;7.398;2023-11-19T04:43:40;100291.34;;;10.53;94.34
84147;BME280;74267;50.434;7.398;2023-11-19T04:46:05;100290.31;;;10.54;94.61
84147;BME280;74267;50.434;7.398;2023-11-19T04:48:31;100285.06;;;10.54;94.79
84147;BME280;74267;50.434;7.398;2023-11-19T04:50:56;100298.22;;;10.54;95.17
84147;BME280;74267;50.434;7.398;2023-11-19T04:53:21;100291.09;;;10.61;95.16
84147;BME280;74267;50.434;7.398;2023-11-19T04:55:47;100287.63;;;10.67;94.75
84147;BME280;74267;50.434;7.398;2023-11-19T04:58:12;100286.38;;;10.70;94.51
84147;BME280;74267;50.434;7.398;2023-11-19T05:00:38;100283.88;;;10.81;94.08
84147;BME280;74267;50.434;7.398;2023-11-19T05:03:03;100286.22;;;10.89;93.98
84147;BME280;74267;50.434;7.398;2023-11-19T05:05:29;100286.63;;;10.93;94.15
84147;BME280;74267;50.434;7.398;2023-11-19T05:07:54;100278.59;;;10.81;93.92
84147;BME280;74267;50.434;7.398;2023-11-19T05:10:20;100281.97;;;10.88;93.66
84147;BME280;74267;50.434;7.398;2023-11-19T05:12:45;100279.88;;;10.72;94.14
84147;BME280;74267;50.434;7.398;2023-11-19T05:15:11;100278.44;;;10.76;93.81
84147;BME280;74267;50.434;7.398;2023-11-19T05:17:37;100285.63;;;10.63;93.36
84147;BME280;74267;50.434;7.398;2023-11-19T05:20:02;100286.00;;;10.66;93.49
84147;BME280;74267;50.434;7.398;2023-11-19T05:22:28;100275.78;;;10.45;94.46
84147;BME280;74267;50.434;7.398;2023-11-19T05:24:53;100287.28;;;10.57;94.13
84147;BME280;74267;50.434;7.398;2023-11-19T05:27:19;100279.63;;;10.49;94.26
84147;BME280;74267;50.434;7.398;2023-11-19T05:29:45;100282.91;;;10.45;93.72
84147;BME280;74267;50.434;7.398;2023-11-19T05:32:10;100294.81;;;10.47;93.73
84147;BME280;74267;50.434;7.398;2023-11-19T05:34:36;100294.34;;;10.57;94.38
84147;BME280;74267;50.434;7.398;2023-11-19T05:37:01;100303.50;;;10.54;94.41
84147;BME280;74267;50.434;7.398;2023-11-19T05:39:28;100301.50;;;10.50;94.27
84147;BME280;74267;50.434;7.398;2023-11-19T05:41:53;100301.88;;;10.53;94.84
84147;BME280;74267;50.434;7.398;2023-11-19T05:44:18;100294.75;;;10.60;94.35
84147;BME280;74267;50.434;7.398;2023-11-19T05:46:44;100308.69;;;10.61;94.79
84147;BME280;74267;50.434;7.398;2023-11-19T05:49:11;100313.19;;;10.60;94.73
84147;BME280;74267;50.434;7.398;2023-11-19T05:51:37;100316.59;;;10.61;95.41
84147;BME280;74267;50.434;7.398;2023-11-19T05:54:04;100316.81;;;10.59;95.02
84147;BME280;74267;50.434;7.398;2023-11-19T05:56:29;100305.84;;;10.62;94.42
84147;BME280;74267;50.434;7.398;2023-11-19T05:58:58;100311.72;;;10.64;95.11
84147;BME280;74267;50.434;7.398;2023-11-19T06:01:23;100302.59;;;10.67;94.77
84147;BME280;74267;50.434;7.398;2023-11-19T06:03:48;100302.34;;;10.75;94.30
84147;BME280;74267;50.434;7.398;2023-11-19T06:06:15;100303.78;;;10.71;94.06
84147;BME280;74267;50.434;7.398;2023-11-19T06:08:40;100312.69;;;10.70;94.06
84147;BME280;74267;50.434;7.398;2023-11-19T06:11:06;100305.44;;;10.65;94.22
84147;BME280;74267;50.434;7.398;2023-11-19T06:13:31;100311.88;;;10.69;94.27
84147;BME280;74267;50.434;7.398;2023-11-19T06:15:56;100317.50;;;10.79;94.37
84147;BME280;74267;50.434;7.398;2023-11-19T06:18:22;100313.88;;;10.74;94.93
84147;BME280;74267;50.434;7.398;2023-11-19T06:20:48;100303.84;;;10.64;94.42
84147;BME280;74267;50.434;7.398;2023-11-19T06:23:15;100307.28;;;10.65;94.62
84147;BME280;74267;50.434;7.398;2023-11-19T06:25:40;100301.75;;;10.73;94.90
84147;BME280;74267;50.434;7.398;2023-11-19T06:28:05;100311.66;;;10.77;94.46
84147;BME280;74267;50.434;7.398;2023-11-19T06:30:31;100319.78;;;10.69;94.67
84147;BME280;74267;50.434;7.398;2023-11-19T06:32:58;100324.84;;;10.71;94.51
84147;BME280;74267;50.434;7.398;2023-11-19T06:35:23;100321.38;;;10.77;93.82
84147;BME280;74267;50.434;7.398;2023-11-19T06:37:48;100342.28;;;10.65;94.24
84147;BME280;74267;50.434;7.398;2023-11-19T06:40:14;100338.91;;;10.58;95.02
84147;BME280;74267;50.434;7.398;2023-11-19T06:42:40;100335.44;;;10.64;94.30
84147;BME280;74267;50.434;7.398;2023-11-19T06:45:06;100353.03;;;10.64;93.97
84147;BME280;74267;50.434;7.398;2023-11-19T06:47:32;100345.97;;;10.58;93.46
84147;BME280;74267;50.434;7.398;2023-11-19T06:49:58;100340.97;;;10.50;93.56
84147;BME280;74267;50.434;7.398;2023-11-19T06:52:23;100348.91;;;10.43;93.73
84147;BME280;74267;50.434;7.398;2023-11-19T06:54:49;100347.69;;;10.39;93.62
84147;BME280;74267;50.434;7.398;2023-11-19T06:57:14;100341.22;;;10.35;94.15
84147;BME280;74267;50.434;7.398;2023-11-19T06:59:40;100341.59;;;10.45;94.22
84147;BME280;74267;50.434;7.398;2023-11-19T07:02:06;100330.13;;;10.33;93.55
84147;BME280;74267;50.434;7.398;2023-11-19T07:04:32;100337.00;;;10.34;94.35
84147;BME280;74267;50.434;7.398;2023-11-19T07:06:58;100345.31;;;10.31;93.08
84147;BME280;74267;50.434;7.398;2023-11-19T07:09:25;100356.09;;;10.23;93.81
84147;BME280;74267;50.434;7.398;2023-11-19T07:11:50;100353.84;;;10.20;93.97
84147;BME280;74267;50.434;7.398;2023-11-19T07:14:17;100358.75;;;10.10;94.15
84147;BME280;74267;50.434;7.398;2023-11-19T07:16:43;100353.91;;;10.07;94.22
84147;BME280;74267;50.434;7.398;2023-11-19T07:19:08;100365.63;;;10.11;94.13
84147;BME280;74267;50.434;7.398;2023-11-19T07:21:34;100366.03;;;10.08;94.80
84147;BME280;74267;50.434;7.398;2023-11-19T07:24:00;100368.66;;;10.08;94.11
84147;BME280;74267;50.434;7.398;2023-11-19T07:26:25;100376.16;;;10.11;93.78
84147;BME280;74267;50.434;7.398;2023-11-19T07:28:52;100387.91;;;10.09;93.75
84147;BME280;74267;50.434;7.398;2023-11-19T07:31:17;100384.66;;;10.00;94.36
84147;BME280;74267;50.434;7.398;2023-11-19T07:33:45;100388.09;;;10.07;94.50
84147;BME280;74267;50.434;7.398;2023-11-19T07:36:10;100387.06;;;10.08;93.67
84147;BME280;74267;50.434;7.398;2023-11-19T07:38:36;100391.09;;;10.17;93.54
84147;BME280;74267;50.434;7.398;2023-11-19T07:41:02;100391.88;;;10.24;92.86
84147;BME280;74267;50.434;7.398;2023-11-19T07:43:28;100402.41;;;10.24;92.98
84147;BME280;74267;50.434;7.398;2023-11-19T07:45:53;100393.91;;;10.22;92.39
84147;BME280;74267;50.434;7.398;2023-11-19T07:48:18;100403.25;;;10.12;92.61
84147;BME280;74267;50.434;7.398;2023-11-19T07:50:49;100410.50;;;10.16;92.82
84147;BME280;74267;50.434;7.398;2023-11-19T07:53:17;100407.28;;;10.14;92.59
84147;BME280;74267;50.434;7.398;2023-11-19T07:55:43;100407.47;;;10.19;92.83
84147;BME280;74267;50.434;7.398;2023-11-19T07:58:10;100401.63;;;10.17;92.93
84147;BME280;74267;50.434;7.398;2023-11-19T08:00:35;100381.41;;;10.11;92.79
84147;BME280;74267;50.434;7.398;2023-11-19T08:03:01;100401.81;;;10.22;92.48
84147;BME280;74267;50.434;7.398;2023-11-19T08:05:26;100396.13;;;10.25;92.83
84147;BME280;74267;50.434;7.398;2023-11-19T08:07:51;100402.00;;;10.27;93.11
84147;BME280;74267;50.434;7.398;2023-11-19T08:10:19;100393.91;;;10.22;91.65
84147;BME280;74267;50.434;7.398;2023-11-19T08:12:44;100380.00;;;10.59;89.25
84147;BME280;74267;50.434;7.398;2023-11-19T08:15:09;100380.13;;;10.71;86.95
84147;BME280;74267;50.434;7.398;2023-11-19T08:17:36;100391.16;;;10.92;84.58
84147;BME280;74267;50.434;7.398;2023-11-19T08:20:01;100382.69;;;11.46;77.64
84147;BME280;74267;50.434;7.398;2023-11-19T08:22:26;100392.16;;;11.53;78.60
84147;BME280;74267;50.434;7.398;2023-11-19T08:24:51;100395.97;;;11.57;79.65
84147;BME280;74267;50.434;7.398;2023-11-19T08:27:17;100397.91;;;11.68;77.64
84147;BME280;74267;50.434;7.398;2023-11-19T08:29:42;100389.78;;;11.70;78.04
84147;BME280;74267;50.434;7.398;2023-11-19T08:32:07;100386.13;;;11.71;77.47
84147;BME280;74267;50.434;7.398;2023-11-19T08:34:33;100391.19;;;11.72;76.31
84147;BME280;74267;50.434;7.398;2023-11-19T08:36:59;100389.16;;;11.92;74.51
84147;BME280;74267;50.434;7.398;2023-11-19T08:39:24;100398.16;;;12.09;73.26
84147;BME280;74267;50.434;7.398;2023-11-19T08:41:50;100379.38;;;11.99;75.91
84147;BME280;74267;50.434;7.398;2023-11-19T08:44:16;100394.91;;;12.25;72.71
84147;BME280;74267;50.434;7.398;2023-11-19T08:46:51;100393.28;;;12.43;72.80
84147;BME280;74267;50.434;7.398;2023-11-19T08:49:16;100399.88;;;12.52;70.14
84147;BME280;74267;50.434;7.398;2023-11-19T08:51:41;100403.63;;;12.62;70.39
84147;BME280;74267;50.434;7.398;2023-11-19T08:54:07;100390.34;;;12.51;74.08
84147;BME280;74267;50.434;7.398;2023-11-19T08:56:32;100394.75;;;12.86;68.66
84147;BME280;74267;50.434;7.398;2023-11-19T08:58:59;100398.22;;;12.87;69.37
84147;BME280;74267;50.434;7.398;2023-11-19T09:01:25;100402.63;;;12.75;71.59
84147;BME280;74267;50.434;7.398;2023-11-19T09:03:50;100415.28;;;12.84;68.80
84147;BME280;74267;50.434;7.398;2023-11-19T09:06:16;100413.50;;;12.96;67.91
84147;BME280;74267;50.434;7.398;2023-11-19T09:08:42;100412.28;;;12.99;68.62
84147;BME280;74267;50.434;7.398;2023-11-19T09:11:08;100418.97;;;13.01;67.38
84147;BME280;74267;50.434;7.398;2023-11-19T09:13:34;100416.81;;;12.92;68.87
84147;BME280;74267;50.434;7.398;2023-11-19T09:15:59;100418.91;;;12.90;68.13
84147;BME280;74267;50.434;7.398;2023-11-19T09:18:29;100423.88;;;12.98;68.82
84147;BME280;74267;50.434;7.398;2023-11-19T09:20:54;100427.69;;;13.02;68.46
84147;BME280;74267;50.434;7.398;2023-11-19T09:23:19;100431.16;;;13.02;70.30
84147;BME280;74267;50.434;7.398;2023-11-19T09:25:45;100432.97;;;13.02;69.78
84147;BME280;74267;50.434;7.398;2023-11-19T09:28:10;100436.81;;;13.17;67.11
84147;BME280;74267;50.434;7.398;2023-11-19T09:30:36;100440.16;;;13.13;68.78
84147;BME280;74267;50.434;7.398;2023-11-19T09:33:01;100445.78;;;13.16;68.20
84147;BME280;74267;50.434;7.398;2023-11-19T09:35:27;100447.84;;;13.14;68.96
84147;BME280;74267;50.434;7.398;2023-11-19T09:37:52;100445.84;;;13.28;69.80
84147;BME280;74267;50.434;7.398;2023-11-19T09:40:18;100446.38;;;13.18;68.54
84147;BME280;74267;50.434;7.398;2023-11-19T09:42:44;100453.06;;;13.21;69.56
84147;BME280;74267;50.434;7.398;2023-11-19T09:45:13;100457.06;;;13.23;68.63
84147;BME280;74267;50.434;7.398;2023-11-19T09:47:42;100461.56;;;13.23;69.66
84147;BME280;74267;50.434;7.398;2023-11-19T09:50:08;100446.59;;;13.17;70.08
84147;BME280;74267;50.434;7.398;2023-11-19T09:52:35;100455.91;;;13.19;70.61
84147;BME280;74267;50.434;7.398;2023-11-19T09:55:00;100456.16;;;13.18;70.94
84147;BME280;74267;50.434;7.398;2023-11-19T09:57:27;100447.84;;;13.14;69.42
84147;BME280;74267;50.434;7.398;2023-11-19T09:59:57;100448.13;;;13.36;67.84
84147;BME280;74267;50.434;7.398;2023-11-19T10:02:23;100447.00;;;13.43;67.08
84147;BME280;74267;50.434;7.398;2023-11-19T10:04:49;100441.94;;;13.42;67.77
84147;BME280;74267;50.434;7.398;2023-11-19T10:07:16;100441.41;;;13.51;67.59
84147;BME280;74267;50.434;7.398;2023-11-19T10:09:41;100429.19;;;13.50;68.38
84147;BME280;74267;50.434;7.398;2023-11-19T10:12:07;100432.69;;;13.74;66.14
84147;BME280;74267;50.434;7.398;2023-11-19T10:14:34;100418.88;;;13.72;68.28
84147;BME280;74267;50.434;7.398;2023-11-19T10:17:03;100415.22;;;13.73;68.40
84147;BME280;74267;50.434;7.398;2023-11-19T10:19:29;100427.97;;;13.76;67.47
84147;BME280;74267;50.434;7.398;2023-11-19T10:21:54;100421.06;;;13.75;67.59
84147;BME280;74267;50.434;7.398;2023-11-19T10:24:32;100415.09;;;13.91;63.90
84147;BME280;74267;50.434;7.398;2023-11-19T10:26:59;100409.56;;;14.04;64.24
84147;BME280;74267;50.434;7.398;2023-11-19T10:29:25;100408.53;;;14.05;62.96
84147;BME280;74267;50.434;7.398;2023-11-19T10:31:59;100413.03;;;13.93;66.08
84147;BME280;74267;50.434;7.398;2023-11-19T10:34:27;100415.78;;;13.98;63.79
84147;BME280;74267;50.434;7.398;2023-11-19T10:36:53;100425.09;;;13.89;66.96
84147;BME280;74267;50.434;7.398;2023-11-19T10:39:19;100426.38;;;13.98;63.98
84147;BME280;74267;50.434;7.398;2023-11-19T10:41:46;100421.66;;;14.00;63.68
84147;BME280;74267;50.434;7.398;2023-11-19T10:44:11;100418.88;;;13.95;65.69
84147;BME280;74267;50.434;7.398;2023-11-19T10:46:41;100425.31;;;13.99;62.57
84147;BME280;74267;50.434;7.398;2023-11-19T10:49:07;100421.19;;;14.03;64.68
84147;BME280;74267;50.434;7.398;2023-11-19T10:51:33;100419.09;;;14.05;64.72
84147;BME280;74267;50.434;7.398;2023-11-19T10:54:05;100425.69;;;14.02;63.99
84147;BME280;74267;50.434;7.398;2023-11-19T10:56:32;100410.63;;;14.03;66.38
84147;BME280;74267;50.434;7.398;2023-11-19T10:58:59;100398.16;;;13.92;66.23
84147;BME280;74267;50.434;7.398;2023-11-19T11:01:27;100407.59;;;13.88;66.70
84147;BME280;74267;50.434;7.398;2023-11-19T11:03:59;100394.00;;;13.96;64.45
84147;BME280;74267;50.434;7.398;2023-11-19T11:06:26;100391.13;;;13.97;63.77
84147;BME280;74267;50.434;7.398;2023-11-19T11:08:53;100398.06;;;13.98;64.49
84147;BME280;74267;50.434;7.398;2023-11-19T11:11:19;100383.41;;;14.19;62.37
84147;BME280;74267;50.434;7.398;2023-11-19T11:13:47;100389.97;;;14.16;61.72
84147;BME280;74267;50.434;7.398;2023-11-19T11:16:14;100382.38;;;14.20;60.87
84147;BME280;74267;50.434;7.398;2023-11-19T11:18:40;100385.50;;;14.28;61.36
84147;BME280;74267;50.434;7.398;2023-11-19T11:21:13;100379.59;;;14.38;61.16
84147;BME280;74267;50.434;7.398;2023-11-19T11:29:21;100399.91;;;14.60;60.67
84147;BME280;74267;50.434;7.398;2023-11-19T11:37:32;100386.59;;;14.44;60.20
84147;BME280;74267;50.434;7.398;2023-11-19T11:39:58;100393.69;;;14.27;62.05
84147;BME280;74267;50.434;7.398;2023-11-19T11:50:12;100387.34;;;14.28;61.83
84147;BME280;74267;50.434;7.398;2023-11-19T11:55:35;100382.72;;;14.35;60.33
84147;BME280;74267;50.434;7.398;2023-11-19T11:58:05;100386.06;;;14.30;60.50
84147;BME280;74267;50.434;7.398;2023-11-19T12:00:32;100379.09;;;14.52;61.47
84147;BME280;74267;50.434;7.398;2023-11-19T12:03:02;100373.84;;;14.69;62.35
84147;BME280;74267;50.434;7.398;2023-11-19T12:05:28;100364.28;;;14.96;60.82
84147;BME280;74267;50.434;7.398;2023-11-19T12:07:55;100377.47;;;15.08;59.56
84147;BME280;74267;50.434;7.398;2023-11-19T12:10:20;100374.84;;;15.24;59.79
84147;BME280;74267;50.434;7.398;2023-11-19T12:12:47;100373.63;;;15.32;57.59
84147;BME280;74267;50.434;7.398;2023-11-19T12:15:12;100368.19;;;15.55;58.05
84147;BME280;74267;50.434;7.398;2023-11-19T12:20:11;100349.91;;;15.25;57.28
84147;BME280;74267;50.434;7.398;2023-11-19T12:22:44;100345.81;;;15.34;59.00
84147;BME280;74267;50.434;7.398;2023-11-19T12:25:10;100342.44;;;15.55;59.09
84147;BME280;74267;50.434;7.398;2023-11-19T12:27:39;100346.97;;;15.38;59.00
84147;BME280;74267;50.434;7.398;2023-11-19T12:30:05;100342.44;;;15.55;60.38
84147;BME280;74267;50.434;7.398;2023-11-19T12:32:42;100332.31;;;15.52;61.53
84147;BME280;74267;50.434;7.398;2023-11-19T12:35:09;100323.97;;;15.60;60.97
84147;BME280;74267;50.434;7.398;2023-11-19T12:37:50;100313.97;;;15.51;60.16
84147;BME280;74267;50.434;7.398;2023-11-19T12:40:17;100313.72;;;15.69;61.32
84147;BME280;74267;50.434;7.398;2023-11-19T12:45:12;100321.13;;;15.34;59.01
84147;BME280;74267;50.434;7.398;2023-11-19T12:47:45;100305.78;;;15.52;58.34
84147;BME280;74267;50.434;7.398;2023-11-19T12:50:15;100305.22;;;15.88;57.56
84147;BME280;74267;50.434;7.398;2023-11-19T12:52:55;100307.81;;;15.83;58.14
84147;BME280;74267;50.434;7.398;2023-11-19T12:55:30;100305.97;;;16.05;57.49
84147;BME280;74267;50.434;7.398;2023-11-19T12:57:56;100294.84;;;16.08;58.38
84147;BME280;74267;50.434;7.398;2023-11-19T13:00:24;100299.41;;;15.91;59.27
84147;BME280;74267;50.434;7.398;2023-11-19T13:02:55;100297.06;;;15.73;59.54
84147;BME280;74267;50.434;7.398;2023-11-19T13:05:25;100294.53;;;15.45;59.13
84147;BME280;74267;50.434;7.398;2023-11-19T13:08:04;100297.97;;;15.29;59.81
84147;BME280;74267;50.434;7.398;2023-11-19T13:10:31;100305.44;;;15.32;60.18
84147;BME280;74267;50.434;7.398;2023-11-19T13:13:01;100306.16;;;15.39;58.24